Time;durP1;ratioP1;P1;durP2;ratioP2;P2;SDS_P1;SDS_P2;PMS_P1;PMS_P2;Temp;Humidity;BMP_temperature;BMP_pressure;BME280_temperature;BME280_humidity;BME280_pressure;Samples;Min_cycle;Max_cycle;Signal;HPM_P1;HPM_P2
2022/09/22 00:03:11;;;;;;;0.00;0.00;;;;;;;11.86;55.73;98728.41;8416220;28;20223;-76
2022/09/22 00:07:14;;;;;;;0.10;0.10;;;;;;;11.77;56.04;98721.81;8416180;28;20242;-77
2022/09/22 00:11:19;;;;;;;0.10;0.10;;;;;;;11.84;55.83;98725.03;8416045;28;20226;-76
2022/09/22 00:15:22;;;;;;;0.10;0.10;;;;;;;11.78;55.98;98720.06;8415805;28;20234;-77
2022/09/22 00:19:28;;;;;;;0.00;0.00;;;;;;;11.89;55.45;98733.50;8415817;28;20284;-77
2022/09/22 00:23:31;;;;;;;0.10;0.10;;;;;;;11.79;55.19;98724.38;8415464;28;20250;-76
2022/09/22 00:27:34;;;;;;;0.00;0.00;;;;;;;11.66;55.28;98719.63;8415240;28;20230;-76
2022/09/22 00:31:38;;;;;;;0.00;0.00;;;;;;;11.59;55.20;98712.94;8415325;28;20241;-77
2022/09/22 00:35:42;;;;;;;0.00;0.00;;;;;;;11.62;55.13;98709.41;8414969;28;20242;-76
2022/09/22 00:39:45;;;;;;;0.10;0.10;;;;;;;11.48;55.61;98710.75;8415176;28;20235;-76
2022/09/22 00:43:50;;;;;;;0.10;0.10;;;;;;;11.45;55.77;98713.47;8414308;28;20223;-75
2022/09/22 00:47:53;;;;;;;0.10;0.10;;;;;;;11.40;55.47;98709.34;8414547;28;20242;-76
2022/09/22 00:51:57;;;;;;;0.10;0.10;;;;;;;11.57;55.22;98706.13;8414731;28;20230;-76
2022/09/22 00:56:02;;;;;;;0.10;0.10;;;;;;;11.37;54.73;98701.69;8414278;28;20227;-76
2022/09/22 01:00:08;;;;;;;0.10;0.10;;;;;;;11.32;55.14;98702.66;8414368;28;20237;-76
2022/09/22 01:04:13;;;;;;;0.10;0.10;;;;;;;11.27;55.37;98699.41;8414333;28;20237;-76
2022/09/22 01:08:18;;;;;;;0.07;0.07;;;;;;;11.25;55.36;98713.31;8413766;28;20320;-76
2022/09/22 01:12:21;;;;;;;0.10;0.10;;;;;;;11.27;55.76;98701.13;8414281;28;20234;-77
2022/09/22 01:16:33;;;;;;;0.10;0.10;;;;;;;11.30;55.45;98693.25;8414006;28;20238;-77
2022/09/22 01:21:09;;;;;;;0.10;0.10;;;;;;;11.21;55.30;98697.00;8414106;28;20235;-76
2022/09/22 01:25:30;;;;;;;0.10;0.10;;;;;;;11.25;54.60;98690.84;8410990;28;20235;-76
2022/09/22 01:30:18;;;;;;;0.07;0.07;;;;;;;11.14;54.83;98693.81;8413773;28;20349;-76
2022/09/22 01:34:27;;;;;;;0.00;0.00;;;;;;;11.07;55.11;98681.94;8413612;28;20218;-77
2022/09/22 01:38:34;;;;;;;0.10;0.10;;;;;;;11.08;55.23;98683.66;8413758;28;20231;-76
2022/09/22 01:42:38;;;;;;;0.10;0.10;;;;;;;11.02;55.36;98691.63;8413640;28;20239;-76
2022/09/22 01:46:47;;;;;;;0.10;0.10;;;;;;;10.99;55.25;98680.53;8413429;28;20466;-76
2022/09/22 01:50:53;;;;;;;0.10;0.10;;;;;;;10.93;56.04;98679.00;8413115;28;20231;-76
2022/09/22 01:54:59;;;;;;;0.10;0.10;;;;;;;10.94;55.66;98678.09;8413414;28;20231;-76
2022/09/22 01:59:03;;;;;;;0.07;0.07;;;;;;;10.93;55.94;98679.00;8413437;28;20522;-77
2022/09/22 02:03:09;;;;;;;0.10;0.10;;;;;;;10.91;55.58;98675.63;8413224;28;20249;-77
2022/09/22 02:07:15;;;;;;;0.10;0.10;;;;;;;10.89;55.47;98677.41;8413322;28;20297;-77
2022/09/22 02:11:18;;;;;;;0.10;0.10;;;;;;;10.88;55.56;98676.56;8413244;28;20260;-77
2022/09/22 02:19:43;;;;;;;0.00;0.00;;;;;;;10.91;55.53;98671.28;8415795;28;20234;-77
2022/09/22 02:23:48;;;;;;;0.00;0.00;;;;;;;10.88;55.83;98683.50;8419717;28;20234;-77
2022/09/22 02:27:53;;;;;;;0.10;0.10;;;;;;;10.80;55.69;98675.16;8419099;28;20529;-77
2022/09/22 02:31:57;;;;;;;0.00;0.00;;;;;;;10.78;55.39;98677.78;8419223;28;20227;-76
2022/09/22 02:36:07;;;;;;;0.10;0.10;;;;;;;10.80;55.60;98680.31;8419290;28;20537;-77
2022/09/22 02:40:14;;;;;;;0.10;0.10;;;;;;;10.87;55.25;98680.06;8419004;28;20223;-76
2022/09/22 02:44:20;;;;;;;0.10;0.10;;;;;;;10.76;55.29;98672.66;8418983;28;20227;-77
2022/09/22 02:48:24;;;;;;;0.10;0.10;;;;;;;10.75;55.19;98677.88;8418767;28;20243;-77
2022/09/22 02:52:28;;;;;;;0.10;0.10;;;;;;;10.60;55.75;98675.81;8418727;28;20292;-77
2022/09/22 02:56:31;;;;;;;0.10;0.10;;;;;;;10.57;55.80;98667.25;8418633;28;20529;-77
2022/09/22 03:00:33;;;;;;;0.10;0.10;;;;;;;10.55;55.35;98668.19;8418293;28;20231;-77
2022/09/22 03:04:36;;;;;;;0.10;0.10;;;;;;;10.60;55.68;98666.28;8418286;28;20514;-77
2022/09/22 03:08:41;;;;;;;0.10;0.10;;;;;;;10.63;55.72;98673.13;8418358;28;20249;-77
2022/09/22 03:12:44;;;;;;;0.10;0.10;;;;;;;10.67;55.23;98670.38;8418132;28;20424;-77
2022/09/22 03:17:07;;;;;;;0.10;0.10;;;;;;;10.60;54.95;98663.69;8417472;28;20426;-77
2022/09/22 03:21:10;;;;;;;0.10;0.10;;;;;;;10.50;54.94;98657.13;8417803;28;20226;-76
2022/09/22 03:25:14;;;;;;;0.10;0.10;;;;;;;10.47;54.53;98652.03;8417840;28;20514;-77
2022/09/22 03:29:17;;;;;;;0.10;0.10;;;;;;;10.50;54.66;98647.63;8417029;28;20226;-77
2022/09/22 03:33:20;;;;;;;0.10;0.10;;;;;;;10.41;54.80;98650.50;8417408;28;20238;-77
2022/09/22 03:37:23;;;;;;;0.10;0.10;;;;;;;10.36;54.92;98655.84;8417074;28;20239;-76
2022/09/22 03:41:27;;;;;;;0.10;0.10;;;;;;;10.36;55.17;98653.25;8417299;28;20254;-77
2022/09/22 03:45:30;;;;;;;0.10;0.10;;;;;;;10.42;55.65;98652.22;8416905;28;20234;-76
2022/09/22 03:49:32;;;;;;;0.10;0.10;;;;;;;10.37;55.37;98654.09;8352233;28;20271;-76
2022/09/22 03:53:35;;;;;;;0.10;0.10;;;;;;;10.47;55.12;98657.22;8350574;28;20228;-76
2022/09/22 03:57:42;;;;;;;0.10;0.10;;;;;;;10.47;55.28;98663.28;8350247;28;20539;-76
2022/09/22 04:01:45;;;;;;;0.10;0.10;;;;;;;10.42;55.64;98654.78;8349904;28;20228;-76
2022/09/22 04:05:51;;;;;;;0.10;0.10;;;;;;;10.34;55.55;98652.47;8366024;28;20239;-76
2022/09/22 04:09:54;;;;;;;0.10;0.10;;;;;;;10.47;55.31;98659.81;8366269;28;20232;-76
2022/09/22 04:13:58;;;;;;;0.10;0.10;;;;;;;10.41;55.81;98650.50;8366089;28;20254;-76
2022/09/22 04:18:01;;;;;;;0.10;0.10;;;;;;;10.49;55.76;98650.25;8365906;28;20228;-76
2022/09/22 04:22:04;;;;;;;0.10;0.10;;;;;;;10.40;55.46;98645.41;8365987;28;20234;-77
2022/09/22 04:26:07;;;;;;;0.10;0.10;;;;;;;10.33;56.07;98640.41;8366087;28;20385;-76
2022/09/22 04:30:12;;;;;;;0.10;0.10;;;;;;;10.20;56.50;98639.06;8365712;28;20235;-76
2022/09/22 04:34:17;;;;;;;0.10;0.10;;;;;;;10.20;56.88;98641.66;8365563;28;20235;-77
2022/09/22 04:38:20;;;;;;;0.10;0.10;;;;;;;10.18;57.00;98638.28;8365220;28;20259;-77
2022/09/22 04:42:22;;;;;;;0.10;0.10;;;;;;;10.30;56.75;98645.69;8364561;28;20397;-80
2022/09/22 04:46:26;;;;;;;0.10;0.10;;;;;;;10.30;56.43;98649.97;8377731;28;20281;-77
2022/09/22 04:50:30;;;;;;;0.10;0.10;;;;;;;10.20;57.24;98648.56;8414496;28;20231;-77
2022/09/22 04:54:32;;;;;;;0.10;0.10;;;;;;;10.16;57.59;98643.50;8414359;28;20230;-77
2022/09/22 04:58:35;;;;;;;0.20;0.20;;;;;;;10.15;57.69;98648.75;8414226;28;20267;-76
2022/09/22 05:02:39;;;;;;;0.20;0.20;;;;;;;10.11;57.73;98647.13;8414010;28;20230;-77
2022/09/22 05:06:42;;;;;;;0.10;0.10;;;;;;;10.06;57.55;98643.84;8413463;28;20254;-75
2022/09/22 05:10:45;;;;;;;0.10;0.10;;;;;;;10.01;57.11;98636.22;8414055;28;20231;-77
2022/09/22 05:14:48;;;;;;;0.10;0.10;;;;;;;9.98;56.67;98642.34;8413609;28;20235;-76
2022/09/22 05:18:52;;;;;;;0.10;0.10;;;;;;;9.93;56.19;98646.81;8413457;28;20234;-76
2022/09/22 05:22:55;;;;;;;0.10;0.10;;;;;;;9.98;55.90;98644.09;8413671;28;20226;-76
2022/09/22 05:26:58;;;;;;;0.10;0.10;;;;;;;10.13;55.67;98646.19;8413526;28;20272;-76
2022/09/22 05:31:01;;;;;;;0.10;0.10;;;;;;;10.22;55.82;98645.03;8413625;28;20234;-78
2022/09/22 05:35:05;;;;;;;0.10;0.10;;;;;;;10.36;55.53;98647.22;8413375;28;20555;-78
2022/09/22 05:39:08;;;;;;;0.10;0.10;;;;;;;10.56;55.34;98652.56;8413831;28;20518;-77
2022/09/22 05:43:11;;;;;;;0.10;0.10;;;;;;;10.64;54.40;98660.13;8413525;28;20231;-77
2022/09/22 05:47:14;;;;;;;0.10;0.10;;;;;;;10.56;54.50;98664.69;8413581;28;20238;-77
2022/09/22 05:51:18;;;;;;;0.10;0.10;;;;;;;10.78;54.30;98664.00;8413170;28;20223;-78
2022/09/22 05:55:21;;;;;;;0.10;0.10;;;;;;;11.01;53.75;98668.38;8423021;28;20231;-78
2022/09/22 05:59:24;;;;;;;0.10;0.10;;;;;;;11.07;53.54;98674.19;8424328;28;20234;-78
2022/09/22 06:03:26;;;;;;;0.10;0.10;;;;;;;11.29;53.53;98665.63;8423890;28;20227;-78
2022/09/22 06:07:31;;;;;;;0.10;0.10;;;;;;;11.38;53.45;98678.25;8423964;28;20234;-78
2022/09/22 06:11:33;;;;;;;0.10;0.10;;;;;;;11.39;53.30;98672.19;8424003;28;20234;-78
2022/09/22 06:15:37;;;;;;;0.10;0.10;;;;;;;11.63;53.56;98674.78;8424111;28;20234;-78
2022/09/22 06:19:40;;;;;;;0.10;0.10;;;;;;;11.78;53.13;98671.59;8424319;28;20230;-78
2022/09/22 06:23:44;;;;;;;0.10;0.10;;;;;;;11.78;53.67;98668.16;8424075;28;20257;-78
2022/09/22 06:27:48;;;;;;;0.10;0.10;;;;;;;11.98;53.63;98676.06;8423694;28;20238;-75
2022/09/22 06:31:50;;;;;;;0.10;0.10;;;;;;;11.98;53.99;98675.22;8423843;28;20246;-78
2022/09/22 06:35:53;;;;;;;0.00;0.00;;;;;;;12.15;53.56;98672.81;8423667;28;20252;-78
2022/09/22 06:39:58;;;;;;;0.10;0.10;;;;;;;12.24;53.50;98679.38;8423811;28;20543;-77
2022/09/22 06:44:00;;;;;;;0.10;0.10;;;;;;;12.23;54.00;98667.31;8423647;28;20257;-77
2022/09/22 06:48:03;;;;;;;0.10;0.10;;;;;;;12.32;54.43;98662.59;8423258;28;20246;-78
2022/09/22 06:52:12;;;;;;;0.10;0.10;;;;;;;12.35;54.45;98666.81;8423387;28;20289;-77
2022/09/22 06:56:18;;;;;;;0.10;0.10;;;;;;;12.39;54.37;98663.19;8423522;28;20539;-77
2022/09/22 07:00:21;;;;;;;0.00;0.00;;;;;;;12.46;53.88;98663.78;8423105;28;20467;-77
2022/09/22 07:04:24;;;;;;;0.10;0.10;;;;;;;12.61;54.14;98668.34;8421141;28;20234;-77
2022/09/22 07:08:28;;;;;;;0.10;0.10;;;;;;;12.77;53.85;98670.31;8417869;28;20231;-78
2022/09/22 07:12:32;;;;;;;0.10;0.10;;;;;;;12.77;54.24;98663.34;8417936;28;20227;-77
2022/09/22 07:16:36;;;;;;;0.00;0.00;;;;;;;12.83;54.42;98664.84;8417729;28;20242;-78
2022/09/22 07:20:39;;;;;;;0.00;0.00;;;;;;;12.90;53.86;98667.13;8417475;28;20241;-78
2022/09/22 07:24:41;;;;;;;0.10;0.10;;;;;;;12.64;54.45;98667.38;8417363;28;20235;-77
2022/09/22 07:28:49;;;;;;;0.00;0.00;;;;;;;13.06;53.84;98656.94;8417565;28;20242;-78
2022/09/22 07:32:52;;;;;;;0.00;0.00;;;;;;;13.05;54.01;98667.38;8416817;28;20234;-78
2022/09/22 07:36:54;;;;;;;0.00;0.00;;;;;;;13.24;53.48;98664.81;8417133;28;20580;-77
2022/09/22 07:40:59;;;;;;;0.10;0.10;;;;;;;13.41;53.12;98664.13;8416583;28;20533;-78
2022/09/22 07:45:13;;;;;;;0.00;0.00;;;;;;;13.33;52.95;98669.66;8416928;28;20231;-77
2022/09/22 07:49:18;;;;;;;0.00;0.00;;;;;;;13.61;52.91;98669.28;8416707;28;20234;-78
2022/09/22 07:53:21;;;;;;;0.07;0.07;;;;;;;14.17;51.98;98664.09;8416503;28;20230;-78
2022/09/22 07:57:24;;;;;;;0.00;0.00;;;;;;;15.18;68.30;98671.25;8416407;28;20235;-76
2022/09/22 08:01:33;;;;;;;0.00;0.00;;;;;;;15.48;59.32;98660.97;8417146;28;20227;-77
2022/09/22 08:05:37;;;;;;;0.00;0.00;;;;;;;15.14;51.73;98664.53;8416547;28;20276;-77
2022/09/22 08:09:40;;;;;;;0.00;0.00;;;;;;;15.83;53.41;98659.09;8416364;28;20245;-77
2022/09/22 08:13:45;;;;;;;0.00;0.00;;;;;;;16.14;50.33;98662.59;8416237;28;20234;-76
2022/09/22 08:17:49;;;;;;;0.00;0.00;;;;;;;16.28;47.05;98656.63;8414834;28;20230;-77
2022/09/22 08:21:53;;;;;;;0.00;0.00;;;;;;;15.88;47.36;98657.97;8416540;28;20277;-77
2022/09/22 08:25:56;;;;;;;0.00;0.00;;;;;;;16.78;45.73;98655.47;8415397;28;20233;-77
2022/09/22 08:29:59;;;;;;;0.00;0.00;;;;;;;17.10;44.82;98657.16;8415560;28;20230;-77
2022/09/22 08:34:04;;;;;;;0.00;0.00;;;;;;;17.31;44.44;98655.84;8415341;28;20230;-77
2022/09/22 08:38:07;;;;;;;0.00;0.00;;;;;;;17.64;43.98;98652.06;8415071;28;20266;-77
2022/09/22 08:42:19;;;;;;;0.03;0.00;;;;;;;17.81;43.06;98648.41;8414974;28;20227;-78
2022/09/22 08:46:25;;;;;;;0.00;0.00;;;;;;;18.31;43.43;98649.56;8415005;28;20239;-79
2022/09/22 08:54:58;;;;;;;0.00;0.00;;;;;;;18.92;42.33;98654.34;8414186;28;20226;-78
2022/09/22 08:59:06;;;;;;;0.00;0.00;;;;;;;19.23;40.86;98657.50;8414533;28;20406;-75
2022/09/22 09:03:19;;;;;;;0.00;0.00;;;;;;;19.35;40.49;98664.53;8414701;28;20238;-75
2022/09/22 09:07:32;;;;;;;0.00;0.00;;;;;;;19.49;40.02;98664.41;8414847;28;20572;-75
2022/09/22 09:12:04;;;;;;;0.00;0.00;;;;;;;19.76;39.48;98660.81;8415014;28;20517;-76
2022/09/22 09:16:24;;;;;;;0.00;0.00;;;;;;;20.24;38.00;98663.50;8410507;28;20231;-76
2022/09/22 09:20:34;;;;;;;0.00;0.00;;;;;;;20.46;39.37;98656.66;8414365;28;20237;-75
2022/09/22 09:24:44;;;;;;;0.00;0.00;;;;;;;20.73;39.47;98661.66;8414304;28;20282;-75
2022/09/22 09:29:16;;;;;;;0.00;0.00;;;;;;;20.91;39.30;98659.47;8413248;28;20308;-75
2022/09/22 09:33:26;;;;;;;0.00;0.00;;;;;;;20.87;38.24;98650.94;8413997;28;20238;-77
2022/09/22 09:37:29;;;;;;;0.00;0.00;;;;;;;20.93;37.66;98652.28;8413914;28;20310;-76
2022/09/22 09:41:35;;;;;;;0.00;0.00;;;;;;;21.45;38.06;98647.44;8413431;28;20456;-75
2022/09/22 09:45:45;;;;;;;0.00;0.00;;;;;;;21.56;36.88;98650.06;8413468;28;20240;-76
2022/09/22 09:49:50;;;;;;;0.00;0.00;;;;;;;21.33;36.24;98651.03;8413241;28;20233;-74
2022/09/22 09:53:55;;;;;;;0.00;0.00;;;;;;;21.81;35.63;98642.84;8413536;28;20414;-76
2022/09/22 09:58:07;;;;;;;0.00;0.00;;;;;;;21.88;34.98;98640.59;8413107;28;20245;-75
2022/09/22 10:02:14;;;;;;;0.00;0.00;;;;;;;22.27;35.22;98633.88;8413372;28;20240;-75
2022/09/22 10:06:24;;;;;;;0.00;0.00;;;;;;;22.12;33.81;98635.09;8413310;28;20273;-75
2022/09/22 10:10:34;;;;;;;0.00;0.00;;;;;;;21.62;33.99;98631.13;8413269;28;20234;-75
2022/09/22 10:14:38;;;;;;;0.00;0.00;;;;;;;22.30;33.91;98627.53;8413467;28;20237;-76
2022/09/22 10:18:41;;;;;;;0.00;0.00;;;;;;;22.49;33.34;98624.22;8414931;28;20247;-77
2022/09/22 10:22:44;;;;;;;0.00;0.00;;;;;;;22.42;32.37;98619.41;8413188;28;20406;-76
2022/09/22 10:26:54;;;;;;;0.00;0.00;;;;;;;22.57;32.59;98624.41;8413036;28;20518;-76
2022/09/22 10:30:59;;;;;;;0.00;0.00;;;;;;;22.49;31.16;98621.56;8412642;28;20240;-76
2022/09/22 10:35:25;;;;;;;0.00;0.00;;;;;;;21.45;33.51;98621.94;8415329;28;20293;-79
2022/09/22 10:39:35;;;;;;;0.00;0.00;;;;;;;22.50;32.13;98613.50;8414084;28;20242;-75
2022/09/22 10:43:42;;;;;;;0.00;0.00;;;;;;;22.68;32.21;98610.31;8419213;28;20235;-75
2022/09/22 10:47:56;;;;;;;0.00;0.00;;;;;;;22.45;32.66;98615.72;8418604;28;20548;-77
2022/09/22 10:52:09;;;;;;;0.00;0.00;;;;;;;22.71;32.26;98610.88;8418461;28;20234;-73
2022/09/22 10:56:17;;;;;;;0.00;0.00;;;;;;;22.40;32.41;98602.88;8418725;28;20234;-76
2022/09/22 11:00:21;;;;;;;0.00;0.00;;;;;;;22.65;32.34;98596.38;8418491;28;20254;-83
2022/09/22 11:04:34;;;;;;;0.00;0.00;;;;;;;22.68;32.04;98602.41;8418462;28;20288;-76
2022/09/22 11:13:13;;;;;;;0.00;0.00;;;;;;;22.38;29.76;98596.06;8417710;28;20240;-76
2022/09/22 11:17:23;;;;;;;0.00;0.00;;;;;;;22.38;31.60;98591.63;8418154;28;20227;-76
2022/09/22 11:21:38;;;;;;;0.00;0.00;;;;;;;22.67;31.70;98590.16;8417804;28;20526;-77
2022/09/22 11:25:53;;;;;;;0.00;0.00;;;;;;;22.73;31.38;98585.22;8417902;28;20231;-77
2022/09/22 11:30:07;;;;;;;0.00;0.00;;;;;;;22.65;31.80;98579.72;8417735;28;20256;-76
2022/09/22 11:34:41;;;;;;;0.00;0.00;;;;;;;22.62;31.05;98577.34;8417971;28;20290;-76
2022/09/22 11:39:12;;;;;;;0.00;0.00;;;;;;;22.69;31.17;98565.28;8375246;28;20227;-76
2022/09/22 11:43:27;;;;;;;0.00;0.00;;;;;;;22.56;30.51;98559.38;8378448;28;20230;-76
2022/09/22 11:47:48;;;;;;;0.00;0.00;;;;;;;22.74;30.68;98560.47;8417080;28;20235;-76
2022/09/22 11:52:00;;;;;;;0.00;0.00;;;;;;;22.38;30.99;98557.31;8416627;28;20234;-77
2022/09/22 11:56:31;;;;;;;0.00;0.00;;;;;;;22.85;31.02;98551.63;8417225;28;20246;-76
2022/09/22 12:00:37;;;;;;;0.00;0.00;;;;;;;22.87;31.07;98548.88;8415930;28;20246;-76
2022/09/22 12:04:43;;;;;;;0.00;0.00;;;;;;;23.06;30.98;98554.25;8416574;28;20241;-75
2022/09/22 12:08:48;;;;;;;0.00;0.00;;;;;;;21.60;31.95;98547.91;8416667;28;20237;-75
2022/09/22 12:13:01;;;;;;;0.00;0.00;;;;;;;21.04;34.19;98540.88;8407728;28;20292;-75
2022/09/22 12:17:07;;;;;;;0.00;0.00;;;;;;;20.46;32.93;98535.63;8416081;28;20227;-75
2022/09/22 12:21:22;;;;;;;0.00;0.00;;;;;;;20.29;34.50;98529.03;8416079;28;20238;-75
2022/09/22 12:25:47;;;;;;;0.00;0.00;;;;;;;21.22;31.50;98518.34;8415632;28;20402;-74
2022/09/22 12:29:57;;;;;;;0.00;0.00;;;;;;;21.06;32.10;98516.09;8415099;28;20529;-75
2022/09/22 12:34:00;;;;;;;0.00;0.00;;;;;;;21.67;31.88;98507.75;8415639;28;20246;-76
2022/09/22 12:38:03;;;;;;;0.00;0.00;;;;;;;21.43;30.29;98509.69;8415562;28;20433;-75
2022/09/22 12:42:08;;;;;;;0.00;0.00;;;;;;;21.63;30.29;98508.97;8417570;28;20249;-83
2022/09/22 12:46:20;;;;;;;0.00;0.00;;;;;;;21.59;28.83;98504.91;8415772;28;20237;-75
2022/09/22 12:50:38;;;;;;;0.00;0.00;;;;;;;22.34;30.61;98502.31;8415617;28;20570;-76
2022/09/22 12:54:41;;;;;;;0.00;0.00;;;;;;;22.80;29.61;98509.75;8415526;28;20250;-76
2022/09/22 12:58:44;;;;;;;0.00;0.00;;;;;;;22.93;29.81;98504.28;8414704;28;20233;-76
2022/09/22 13:02:49;;;;;;;0.00;0.00;;;;;;;23.20;30.04;98493.13;8413853;28;20254;-76
2022/09/22 13:06:54;;;;;;;0.00;0.00;;;;;;;23.31;30.25;98491.34;8406489;28;20235;-77
2022/09/22 13:10:59;;;;;;;0.00;0.00;;;;;;;23.14;30.66;98480.44;8414941;28;20437;-76
2022/09/22 13:15:23;;;;;;;0.00;0.00;;;;;;;23.43;30.42;98471.75;8414497;28;20231;-76
2022/09/22 13:19:28;;;;;;;0.00;0.00;;;;;;;23.76;30.02;98478.47;8414300;28;20238;-75
2022/09/22 13:23:31;;;;;;;0.00;0.00;;;;;;;23.78;29.75;98476.53;8414336;28;20273;-76
2022/09/22 13:27:34;;;;;;;0.00;0.00;;;;;;;23.85;29.58;98470.69;8414327;28;20234;-76
2022/09/22 13:31:42;;;;;;;0.00;0.00;;;;;;;23.79;29.01;98475.53;8414027;28;20240;-77
2022/09/22 13:35:46;;;;;;;0.00;0.00;;;;;;;23.79;29.11;98472.06;8414069;28;20230;-76
2022/09/22 13:39:54;;;;;;;0.00;0.00;;;;;;;23.86;29.24;98459.97;8413168;28;20231;-76
2022/09/22 13:44:00;;;;;;;0.00;0.00;;;;;;;23.92;29.23;98461.22;8413353;28;20238;-76
2022/09/22 13:48:07;;;;;;;0.00;0.00;;;;;;;23.61;28.44;98454.25;8413447;28;20235;-76
2022/09/22 13:52:16;;;;;;;0.00;0.00;;;;;;;23.77;28.99;98448.38;8413534;28;20298;-76
2022/09/22 13:56:19;;;;;;;0.00;0.00;;;;;;;23.83;28.72;98452.31;8413469;28;20234;-76
2022/09/22 14:00:26;;;;;;;0.00;0.00;;;;;;;23.27;29.46;98445.03;8413219;28;20232;-76
2022/09/22 14:04:30;;;;;;;0.00;0.00;;;;;;;22.83;31.10;98440.88;8413042;28;20230;-76
2022/09/22 14:08:34;;;;;;;0.00;0.00;;;;;;;21.93;32.50;98441.47;8413161;28;20231;-76
2022/09/22 14:12:39;;;;;;;0.00;0.00;;;;;;;21.61;32.94;98431.81;8412740;28;20276;-77
2022/09/22 14:16:47;;;;;;;0.00;0.00;;;;;;;21.23;33.96;98430.47;8419309;28;20222;-76
2022/09/22 14:20:52;;;;;;;0.00;0.00;;;;;;;20.61;31.90;98434.50;8418951;28;20540;-76
2022/09/22 14:24:59;;;;;;;0.00;0.00;;;;;;;20.34;32.19;98436.63;8419607;28;20424;-75
2022/09/22 14:29:14;;;;;;;0.00;0.00;;;;;;;20.13;32.71;98431.25;8419164;28;20227;-76
2022/09/22 14:33:21;;;;;;;0.00;0.00;;;;;;;19.86;33.03;98429.75;8418784;28;20429;-76
2022/09/22 14:37:27;;;;;;;0.00;0.00;;;;;;;19.82;32.35;98433.53;8418546;28;20243;-77
2022/09/22 14:41:35;;;;;;;0.00;0.00;;;;;;;19.65;33.91;98419.03;8418657;28;20236;-74
2022/09/22 14:45:39;;;;;;;0.00;0.00;;;;;;;19.57;32.88;98419.56;8418532;28;20231;-74
2022/09/22 14:49:43;;;;;;;0.00;0.00;;;;;;;19.47;32.62;98411.53;8416464;28;20240;-74
2022/09/22 14:53:48;;;;;;;0.00;0.00;;;;;;;19.40;34.54;98410.31;8418296;28;20431;-75
2022/09/22 14:57:52;;;;;;;0.00;0.00;;;;;;;19.45;35.86;98413.44;8417880;28;20228;-74
2022/09/22 15:06:16;;;;;;;0.00;0.00;;;;;;;19.08;38.40;98394.28;8418073;28;20545;-74
2022/09/22 15:10:25;;;;;;;0.00;0.00;;;;;;;19.01;41.40;98393.06;8417858;28;20235;-75
2022/09/22 15:14:39;;;;;;;0.00;0.00;;;;;;;18.99;37.98;98395.78;8417785;28;20236;-74
2022/09/22 15:18:42;;;;;;;0.00;0.00;;;;;;;19.32;34.36;98394.28;8417426;28;20296;-74
2022/09/22 15:22:46;;;;;;;0.00;0.00;;;;;;;19.90;33.50;98392.59;8417318;28;20254;-75
2022/09/22 15:26:49;;;;;;;0.00;0.00;;;;;;;20.09;33.66;98405.16;8416235;28;20527;-74
2022/09/22 15:30:54;;;;;;;0.00;0.00;;;;;;;20.17;33.04;98391.44;8417481;28;20235;-75
2022/09/22 15:34:57;;;;;;;0.00;0.00;;;;;;;20.27;33.26;98387.13;8417265;28;20283;-75
2022/09/22 15:39:01;;;;;;;0.00;0.00;;;;;;;20.35;34.45;98386.53;8417409;28;20235;-78
2022/09/22 15:43:05;;;;;;;0.00;0.00;;;;;;;20.27;35.39;98381.03;8417468;28;20465;-75
2022/09/22 15:47:16;;;;;;;0.00;0.00;;;;;;;20.22;33.58;98381.41;8416462;28;20239;-75
2022/09/22 15:51:19;;;;;;;0.00;0.00;;;;;;;20.14;34.73;98388.19;8417321;28;20306;-77
2022/09/22 15:55:23;;;;;;;0.00;0.00;;;;;;;20.05;34.33;98389.75;8416671;28;20231;-74
2022/09/22 15:59:28;;;;;;;0.00;0.00;;;;;;;19.47;32.02;98377.38;8416211;28;20234;-74
2022/09/22 16:03:33;;;;;;;0.00;0.00;;;;;;;19.37;32.15;98383.44;8416104;28;20259;-76
2022/09/22 16:07:44;;;;;;;0.00;0.00;;;;;;;19.26;32.24;98379.81;8416269;28;20236;-76
2022/09/22 16:11:47;;;;;;;0.00;0.00;;;;;;;18.92;32.58;98377.03;8416152;28;20232;-75
2022/09/22 16:15:50;;;;;;;0.00;0.00;;;;;;;18.83;33.43;98384.69;8415035;28;20229;-72
2022/09/22 16:19:55;;;;;;;0.00;0.00;;;;;;;18.99;33.45;98377.41;8415363;28;20230;-75
2022/09/22 16:24:00;;;;;;;0.00;0.00;;;;;;;18.87;33.16;98373.06;8415529;28;20243;-75
2022/09/22 16:28:06;;;;;;;0.00;0.00;;;;;;;18.85;34.35;98369.69;8415557;28;20241;-75
2022/09/22 16:32:09;;;;;;;0.00;0.00;;;;;;;18.77;33.97;98364.97;8415387;28;20235;-77
2022/09/22 16:36:14;;;;;;;0.00;0.00;;;;;;;18.63;33.68;98363.31;8414823;28;20231;-75
2022/09/22 16:40:18;;;;;;;0.00;0.00;;;;;;;18.53;33.15;98357.06;8414244;28;20231;-75
2022/09/22 16:44:21;;;;;;;0.00;0.00;;;;;;;18.37;33.42;98359.91;8414848;28;20519;-75
2022/09/22 16:48:24;;;;;;;0.00;0.00;;;;;;;18.38;33.94;98364.22;8414564;28;20235;-74
2022/09/22 16:52:30;;;;;;;0.00;0.00;;;;;;;18.31;35.34;98360.34;8414579;28;20247;-74
2022/09/22 16:56:35;;;;;;;0.00;0.00;;;;;;;18.21;36.72;98364.56;8414475;28;20230;-75
2022/09/22 17:00:37;;;;;;;0.00;0.00;;;;;;;18.13;37.56;98360.69;8414395;28;20230;-75
2022/09/22 17:04:40;;;;;;;0.00;0.00;;;;;;;18.01;39.65;98360.69;8414134;28;20246;-75
2022/09/22 17:08:45;;;;;;;0.00;0.00;;;;;;;17.90;42.55;98372.75;8414087;28;20270;-76
2022/09/22 17:12:49;;;;;;;0.00;0.00;;;;;;;17.83;44.40;98368.00;8413782;28;20234;-75
2022/09/22 17:16:55;;;;;;;0.00;0.00;;;;;;;17.63;44.88;98366.69;8413925;28;20254;-77
2022/09/22 17:20:58;;;;;;;0.00;0.00;;;;;;;17.55;45.18;98367.22;8413883;28;20230;-74
2022/09/22 17:25:02;;;;;;;0.00;0.00;;;;;;;17.36;46.21;98371.06;8414396;28;20237;-78
2022/09/22 17:29:05;;;;;;;0.00;0.00;;;;;;;17.29;47.45;98372.41;8413583;28;20415;-76
2022/09/22 17:33:08;;;;;;;0.00;0.00;;;;;;;17.18;47.35;98370.47;8413792;28;20431;-76
2022/09/22 17:37:12;;;;;;;0.00;0.00;;;;;;;17.03;48.56;98374.09;8413443;28;20230;-78
2022/09/22 17:41:18;;;;;;;0.00;0.00;;;;;;;16.87;48.62;98374.22;8413891;28;20226;-78
2022/09/22 17:45:21;;;;;;;0.00;0.00;;;;;;;16.91;48.34;98374.88;8414018;28;20242;-78
2022/09/22 17:58:08;;;;;;;0.00;0.00;;;;;;;16.50;49.51;98366.03;8412921;28;20227;-74
2022/09/22 18:02:14;;;;;;;0.00;0.00;;;;;;;16.47;49.73;98379.31;8413109;28;20236;-76
2022/09/22 18:06:18;;;;;;;0.00;0.00;;;;;;;16.31;50.44;98375.97;8411397;28;20230;-76
2022/09/22 18:10:21;;;;;;;0.00;0.00;;;;;;;16.27;50.28;98380.53;8413111;28;20253;-77
2022/09/22 18:14:25;;;;;;;0.00;0.00;;;;;;;16.14;50.48;98377.81;8413097;28;20234;-76
2022/09/22 18:18:28;;;;;;;0.00;0.00;;;;;;;16.06;50.74;98380.06;8412995;28;20257;-76
2022/09/22 18:22:30;;;;;;;0.03;0.03;;;;;;;15.99;50.74;98373.50;8412901;28;20230;-76
2022/09/22 18:26:37;;;;;;;0.00;0.00;;;;;;;15.88;50.31;98383.75;8412876;28;20268;-76
2022/09/22 18:30:42;;;;;;;0.00;0.00;;;;;;;15.92;50.49;98387.91;8413930;28;20231;-84
2022/09/22 18:34:44;;;;;;;0.00;0.00;;;;;;;16.03;49.54;98383.69;8418000;28;20238;-90
2022/09/22 18:38:47;;;;;;;0.00;0.00;;;;;;;16.05;58.83;98380.16;8414960;28;20235;-73
2022/09/22 18:42:50;;;;;;;0.00;0.00;;;;;;;16.71;56.96;98389.16;8412432;28;20243;-79
2022/09/22 18:46:55;;;;;;;0.00;0.00;;;;;;;17.14;54.39;98389.09;8412307;28;20525;-75
2022/09/22 18:50:59;;;;;;;0.00;0.00;;;;;;;16.06;50.09;98393.13;8412460;28;20534;-74
2022/09/22 18:55:03;;;;;;;0.00;0.00;;;;;;;15.81;50.80;98391.97;8412595;28;20241;-74
2022/09/22 18:59:09;;;;;;;0.00;0.00;;;;;;;15.67;50.66;98391.06;8412633;28;20235;-75
2022/09/22 19:03:14;;;;;;;0.00;0.00;;;;;;;15.56;51.36;98392.53;8417334;28;20227;-75
2022/09/22 19:11:45;;;;;;;0.00;0.00;;;;;;;15.49;51.32;98395.59;8418133;28;20651;-75
2022/09/22 19:15:51;;;;;;;0.00;0.00;;;;;;;15.32;51.37;98394.75;8417537;28;20314;-74
2022/09/22 19:20:02;;;;;;;0.00;0.00;;;;;;;15.16;52.13;98399.19;8417702;28;20235;-75
2022/09/22 19:24:06;;;;;;;0.00;0.00;;;;;;;15.15;51.64;98405.31;8417728;28;20235;-75
2022/09/22 19:28:11;;;;;;;0.00;0.00;;;;;;;15.04;52.34;98403.28;8417682;28;20235;-74
2022/09/22 19:32:14;;;;;;;0.00;0.00;;;;;;;14.85;52.49;98404.34;8417747;28;20545;-75
2022/09/22 19:36:18;;;;;;;0.00;0.00;;;;;;;14.88;52.35;98403.31;8417436;28;20238;-75
2022/09/22 19:40:23;;;;;;;0.00;0.00;;;;;;;14.88;52.55;98407.69;8417516;28;20238;-74
2022/09/22 19:44:28;;;;;;;0.10;0.10;;;;;;;14.79;52.79;98403.81;8417018;28;20250;-74
2022/09/22 19:48:31;;;;;;;0.00;0.00;;;;;;;14.69;52.46;98395.66;8416969;28;20245;-75
2022/09/22 19:52:36;;;;;;;0.00;0.00;;;;;;;14.70;52.52;98392.13;8417049;28;20235;-75